Time;durP1;ratioP1;P1;durP2;ratioP2;P2;SDS_P1;SDS_P2;PMS_P1;PMS_P2;Temp;Humidity;BMP_temperature;BMP_pressure;BME280_temperature;BME280_humidity;BME280_pressure;Samples;Min_cycle;Max_cycle;Signal;HPM_P1;HPM_P2
2022/01/19 00:01:48;;;;;;;1.87;0.70;;;;;;;;;;6300068;22;20027;-79
2022/01/19 00:04:17;;;;;;;2.42;0.93;;;;;;;;;;6303118;22;20046;-78
2022/01/19 00:06:47;;;;;;;1.13;0.40;;;;;;;;;;6301295;22;20391;-79
2022/01/19 00:09:16;;;;;;;3.50;0.35;;;;;;;;;;6303605;22;20011;-79
2022/01/19 00:11:44;;;;;;;1.83;0.63;;;;;;;;;;6302475;22;20015;-79
2022/01/19 00:17:07;;;;;;;2.80;0.80;;;;;;;;;;6298844;22;20030;-78
2022/01/19 00:19:36;;;;;;;2.47;0.82;;;;;;;;;;6300598;22;20072;-79
2022/01/19 00:22:07;;;;;;;3.08;1.00;;;;;;;;;;6302017;22;20015;-79
2022/01/19 00:24:36;;;;;;;2.83;0.90;;;;;;;;;;6301840;22;20022;-78
2022/01/19 00:27:29;;;;;;;2.60;0.80;;;;;;;;;;6301855;22;20016;-79
2022/01/19 00:29:58;;;;;;;1.95;0.82;;;;;;;;;;6300440;22;20110;-78
2022/01/19 00:32:29;;;;;;;3.42;0.70;;;;;;;;;;6297548;22;20070;-79
2022/01/19 00:34:57;;;;;;;3.53;1.15;;;;;;;;;;6301261;22;20025;-78
2022/01/19 00:37:29;;;;;;;2.95;0.95;;;;;;;;;;6304683;22;20042;-78
2022/01/19 00:39:58;;;;;;;2.90;0.73;;;;;;;;;;6303286;22;20334;-78
2022/01/19 00:42:27;;;;;;;2.90;1.15;;;;;;;;;;6277052;22;20019;-78
2022/01/19 00:44:55;;;;;;;3.38;0.75;;;;;;;;;;6304034;22;20291;-78
2022/01/19 00:47:24;;;;;;;3.63;1.40;;;;;;;;;;6300816;22;20026;-79
2022/01/19 00:49:54;;;;;;;3.03;1.02;;;;;;;;;;6301814;22;20027;-78
2022/01/19 00:52:23;;;;;;;2.63;1.20;;;;;;;;;;6303144;22;20019;-78
2022/01/19 00:54:55;;;;;;;6.18;1.13;;;;;;;;;;6303906;22;20015;-78
2022/01/19 00:57:24;;;;;;;3.05;1.13;;;;;;;;;;6301696;22;20021;-78
2022/01/19 00:59:58;;;;;;;3.45;0.93;;;;;;;;;;6304031;22;20460;-78
2022/01/19 01:02:31;;;;;;;2.45;1.00;;;;;;;;;;6302016;22;20019;-79
2022/01/19 01:05:00;;;;;;;3.00;1.33;;;;;;;;;;6304438;22;20011;-78
2022/01/19 01:07:30;;;;;;;2.28;1.17;;;;;;;;;;6301059;22;20073;-79
2022/01/19 01:10:00;;;;;;;2.00;0.70;;;;;;;;;;6304017;22;20023;-79
2022/01/19 01:12:42;;;;;;;2.35;0.80;;;;;;;;;;6302897;22;20015;-79
2022/01/19 01:15:48;;;;;;;1.95;1.13;;;;;;;;;;6300045;22;20015;-79
2022/01/19 01:18:19;;;;;;;1.40;0.60;;;;;;;;;;6301301;22;20019;-79
2022/01/19 01:20:58;;;;;;;1.80;1.23;;;;;;;;;;6302750;22;20075;-78
2022/01/19 01:23:32;;;;;;;2.03;0.73;;;;;;;;;;6275006;22;20434;-78
2022/01/19 01:26:07;;;;;;;1.90;0.60;;;;;;;;;;6304042;22;20027;-77
2022/01/19 01:28:36;;;;;;;6.53;1.23;;;;;;;;;;6275467;22;20099;-78
2022/01/19 01:34:01;;;;;;;2.78;0.95;;;;;;;;;;6301234;22;20015;-79
2022/01/19 01:36:31;;;;;;;3.53;1.08;;;;;;;;;;6301706;22;20342;-78
2022/01/19 01:39:00;;;;;;;3.65;1.08;;;;;;;;;;6303884;22;20428;-77
2022/01/19 01:41:30;;;;;;;3.38;1.02;;;;;;;;;;6303292;22;20024;-78
2022/01/19 01:44:08;;;;;;;2.20;0.90;;;;;;;;;;6302358;22;20041;-78
2022/01/19 01:46:46;;;;;;;2.78;0.93;;;;;;;;;;6297204;22;20471;-79
2022/01/19 01:49:24;;;;;;;2.58;1.05;;;;;;;;;;6276199;22;20016;-79
2022/01/19 01:54:40;;;;;;;2.55;0.90;;;;;;;;;;6302231;22;20045;-78
2022/01/19 01:57:11;;;;;;;2.47;1.10;;;;;;;;;;6302125;22;20023;-78
2022/01/19 01:59:40;;;;;;;3.25;0.90;;;;;;;;;;6303703;22;20080;-79
2022/01/19 02:02:27;;;;;;;2.20;0.80;;;;;;;;;;6297838;22;20088;-78
2022/01/19 02:04:56;;;;;;;2.22;0.73;;;;;;;;;;6301351;22;20685;-78
2022/01/19 02:07:42;;;;;;;2.30;0.80;;;;;;;;;;6300498;22;20027;-78
2022/01/19 02:10:31;;;;;;;2.03;0.70;;;;;;;;;;6301311;22;20016;-78
2022/01/19 02:16:10;;;;;;;2.90;1.23;;;;;;;;;;6300816;22;20027;-78
2022/01/19 02:24:23;;;;;;;2.10;0.50;;;;;;;;;;6299765;22;20041;-78
2022/01/19 02:27:00;;;;;;;3.17;1.60;;;;;;;;;;6301495;22;20088;-78
2022/01/19 02:30:09;;;;;;;3.20;0.75;;;;;;;;;;6302514;22;20016;-77
2022/01/19 02:40:59;;;;;;;2.08;0.95;;;;;;;;;;6300594;22;20035;-78
2022/01/19 02:43:29;;;;;;;3.60;1.08;;;;;;;;;;6275870;22;20033;-78
2022/01/19 02:51:30;;;;;;;3.33;1.03;;;;;;;;;;6302466;22;20429;-77
2022/01/19 02:54:01;;;;;;;2.70;1.10;;;;;;;;;;6300921;22;20043;-78
2022/01/19 02:56:33;;;;;;;4.57;1.27;;;;;;;;;;6302835;22;20033;-79
2022/01/19 02:59:13;;;;;;;5.43;1.27;;;;;;;;;;6302066;22;20365;-78
2022/01/19 03:10:05;;;;;;;3.63;1.58;;;;;;;;;;6300440;22;20086;-78
2022/01/19 03:12:34;;;;;;;2.88;1.15;;;;;;;;;;6299604;22;20022;-78
2022/01/19 03:15:08;;;;;;;5.10;1.42;;;;;;;;;;6323225;22;20072;-78
2022/01/19 03:17:40;;;;;;;2.17;0.97;;;;;;;;;;6301431;22;20023;-79
2022/01/19 03:20:11;;;;;;;2.70;1.25;;;;;;;;;;6299885;22;20023;-77
2022/01/19 03:22:49;;;;;;;2.65;1.08;;;;;;;;;;6275086;22;20348;-77
2022/01/19 03:25:19;;;;;;;4.32;1.60;;;;;;;;;;6301573;22;20015;-77
2022/01/19 03:27:53;;;;;;;3.17;1.40;;;;;;;;;;6275694;22;20083;-78
2022/01/19 03:30:22;;;;;;;3.53;1.40;;;;;;;;;;6297293;22;20138;-77
2022/01/19 03:32:51;;;;;;;4.60;1.40;;;;;;;;;;6302057;22;20019;-78
2022/01/19 03:35:20;;;;;;;3.72;1.50;;;;;;;;;;6274153;22;20623;-78
2022/01/19 03:37:50;;;;;;;4.30;1.38;;;;;;;;;;6302415;22;20430;-78
2022/01/19 03:40:21;;;;;;;3.70;1.67;;;;;;;;;;6299361;22;20043;-78
2022/01/19 03:42:51;;;;;;;3.03;1.43;;;;;;;;;;6274396;22;20049;-78
2022/01/19 03:45:31;;;;;;;3.33;1.27;;;;;;;;;;6298963;22;20068;-77
2022/01/19 03:48:16;;;;;;;3.35;1.38;;;;;;;;;;6300093;22;20013;-77
2022/01/19 03:50:48;;;;;;;3.42;1.27;;;;;;;;;;6248984;22;20361;-78
2022/01/19 03:53:18;;;;;;;5.50;1.65;;;;;;;;;;6300313;22;20038;-78
2022/01/19 03:55:49;;;;;;;4.30;1.83;;;;;;;;;;6275147;22;20015;-78
2022/01/19 03:58:17;;;;;;;3.45;1.85;;;;;;;;;;6300193;22;20075;-77
2022/01/19 04:00:46;;;;;;;4.22;1.30;;;;;;;;;;6273382;22;20397;-78
2022/01/19 04:03:20;;;;;;;5.72;1.55;;;;;;;;;;6299798;22;20016;-77
2022/01/19 04:08:42;;;;;;;3.70;1.70;;;;;;;;;;6274111;22;20090;-77
2022/01/19 04:11:15;;;;;;;4.95;1.63;;;;;;;;;;6304750;22;20035;-77
2022/01/19 04:13:59;;;;;;;3.80;2.00;;;;;;;;;;6302372;22;20118;-78
2022/01/19 04:16:28;;;;;;;3.35;1.60;;;;;;;;;;6301414;22;20052;-77
2022/01/19 04:19:07;;;;;;;4.50;1.95;;;;;;;;;;6303108;22;20046;-78
2022/01/19 04:22:02;;;;;;;6.23;2.50;;;;;;;;;;6276102;22;20019;-77
2022/01/19 04:24:34;;;;;;;5.13;2.17;;;;;;;;;;6301419;22;20061;-77
2022/01/19 04:30:01;;;;;;;6.50;1.90;;;;;;;;;;6276009;22;20352;-78
2022/01/19 04:32:42;;;;;;;6.03;2.17;;;;;;;;;;6300187;22;20019;-78
2022/01/19 04:35:14;;;;;;;5.27;1.83;;;;;;;;;;6302340;22;20085;-78
2022/01/19 04:38:08;;;;;;;4.43;1.67;;;;;;;;;;6276168;22;20023;-78
2022/01/19 04:54:15;;;;;;;5.60;2.03;;;;;;;;;;6276186;22;20117;-78
2022/01/19 05:03:43;;;;;;;3.23;1.60;;;;;;;;;;6303332;22;20034;-78
2022/01/19 05:06:45;;;;;;;3.35;1.73;;;;;;;;;;6302219;22;20318;-78
2022/01/19 05:09:28;;;;;;;4.63;1.70;;;;;;;;;;6301536;22;20011;-78
2022/01/19 05:14:46;;;;;;;3.58;1.85;;;;;;;;;;6308068;22;20038;-78
2022/01/19 05:17:17;;;;;;;4.60;1.73;;;;;;;;;;6307074;22;20094;-78
2022/01/19 05:19:47;;;;;;;5.68;2.00;;;;;;;;;;6306958;22;20015;-77
2022/01/19 05:22:41;;;;;;;6.35;2.10;;;;;;;;;;6307486;22;20072;-77
2022/01/19 05:25:19;;;;;;;3.75;1.88;;;;;;;;;;6248118;22;20020;-77
2022/01/19 05:27:52;;;;;;;4.13;1.88;;;;;;;;;;6252527;22;20031;-78
2022/01/19 05:30:23;;;;;;;4.77;1.30;;;;;;;;;;6251533;22;20012;-77
2022/01/19 05:32:55;;;;;;;3.78;1.58;;;;;;;;;;6252548;22;20015;-82
2022/01/19 05:35:27;;;;;;;4.82;2.33;;;;;;;;;;6251471;22;20079;-78
2022/01/19 05:38:15;;;;;;;3.47;1.30;;;;;;;;;;6250614;22;20023;-78
2022/01/19 05:40:57;;;;;;;3.60;1.60;;;;;;;;;;6277827;22;20395;-78
2022/01/19 05:43:27;;;;;;;3.93;2.07;;;;;;;;;;6245314;22;20079;-79
2022/01/19 05:45:56;;;;;;;5.40;1.70;;;;;;;;;;6243995;22;20410;-77
2022/01/19 05:48:26;;;;;;;4.07;1.65;;;;;;;;;;6244542;22;20038;-77
2022/01/19 05:50:57;;;;;;;4.97;1.90;;;;;;;;;;6247945;22;20063;-86
2022/01/19 05:53:32;;;;;;;8.43;2.65;;;;;;;;;;6246798;22;20446;-87
2022/01/19 05:56:06;;;;;;;6.97;2.17;;;;;;;;;;6247928;22;20015;-87
2022/01/19 05:58:49;;;;;;;3.80;1.52;;;;;;;;;;6244924;22;20081;-78
2022/01/19 06:01:18;;;;;;;3.90;1.77;;;;;;;;;;6243901;22;20019;-78
2022/01/19 06:03:50;;;;;;;4.07;1.80;;;;;;;;;;6244465;22;20573;-77
2022/01/19 06:06:23;;;;;;;4.68;1.73;;;;;;;;;;6272321;22;20012;-80
2022/01/19 06:09:34;;;;;;;4.60;1.83;;;;;;;;;;6252683;22;20070;-81
2022/01/19 06:12:06;;;;;;;4.85;1.80;;;;;;;;;;6244530;22;20073;-82
2022/01/19 06:14:39;;;;;;;7.68;2.03;;;;;;;;;;6244574;22;20019;-75
2022/01/19 06:17:10;;;;;;;4.35;1.60;;;;;;;;;;6217946;23;20566;-77
2022/01/19 06:19:41;;;;;;;3.97;1.80;;;;;;;;;;6241840;23;20023;-78
2022/01/19 06:22:14;;;;;;;4.47;1.77;;;;;;;;;;6215978;23;20024;-80
2022/01/19 06:24:43;;;;;;;7.45;1.77;;;;;;;;;;6214837;23;20078;-77
2022/01/19 06:27:18;;;;;;;7.57;1.70;;;;;;;;;;6213967;23;20078;-78
2022/01/19 06:29:47;;;;;;;3.08;1.63;;;;;;;;;;6191900;23;20095;-77
2022/01/19 06:32:18;;;;;;;9.35;2.00;;;;;;;;;;6210285;22;20027;-77
2022/01/19 06:34:50;;;;;;;5.80;1.10;;;;;;;;;;6244450;22;20090;-79
2022/01/19 06:37:22;;;;;;;6.18;1.92;;;;;;;;;;6271801;22;20102;-77
2022/01/19 06:40:01;;;;;;;6.25;1.70;;;;;;;;;;6219329;22;20346;-77
2022/01/19 06:42:36;;;;;;;9.80;2.38;;;;;;;;;;6243625;22;20008;-77
2022/01/19 06:45:07;;;;;;;3.92;1.40;;;;;;;;;;6216743;22;20070;-77
2022/01/19 06:47:36;;;;;;;5.50;1.63;;;;;;;;;;6218985;22;20020;-77
2022/01/19 06:50:07;;;;;;;4.57;1.83;;;;;;;;;;6244353;22;20039;-77
2022/01/19 06:52:41;;;;;;;7.78;1.67;;;;;;;;;;6218588;22;20015;-77
2022/01/19 06:55:10;;;;;;;3.70;1.40;;;;;;;;;;6219931;22;20019;-77
2022/01/19 06:57:39;;;;;;;5.18;1.25;;;;;;;;;;6219906;22;20043;-77
2022/01/19 07:00:23;;;;;;;2.57;1.40;;;;;;;;;;6242099;22;20038;-77
2022/01/19 07:03:19;;;;;;;4.90;1.40;;;;;;;;;;6224705;22;20098;-77
2022/01/19 07:05:57;;;;;;;6.18;1.58;;;;;;;;;;6244185;22;20016;-77
2022/01/19 07:08:59;;;;;;;3.38;1.48;;;;;;;;;;6245120;22;20030;-77
2022/01/19 07:11:28;;;;;;;9.00;1.85;;;;;;;;;;6244734;22;20106;-77
2022/01/19 07:13:58;;;;;;;6.73;1.67;;;;;;;;;;6219537;22;20422;-78
2022/01/19 07:16:27;;;;;;;6.80;2.28;;;;;;;;;;6240362;22;20039;-78
2022/01/19 07:18:56;;;;;;;4.25;1.52;;;;;;;;;;6243884;22;20137;-79
2022/01/19 07:21:27;;;;;;;5.50;1.80;;;;;;;;;;6242381;22;20103;-79
2022/01/19 07:24:20;;;;;;;3.55;1.10;;;;;;;;;;6242708;22;20019;-79
2022/01/19 07:26:50;;;;;;;11.30;1.87;;;;;;;;;;6301212;22;20042;-77
2022/01/19 07:29:23;;;;;;;3.00;1.60;;;;;;;;;;6249303;22;20429;-77
2022/01/19 07:32:23;;;;;;;4.68;1.20;;;;;;;;;;6265164;22;20022;-77
2022/01/19 07:34:52;;;;;;;3.45;1.60;;;;;;;;;;6305988;22;20014;-80
2022/01/19 07:37:23;;;;;;;4.55;1.55;;;;;;;;;;6279721;22;20117;-80
2022/01/19 07:39:53;;;;;;;4.20;2.07;;;;;;;;;;6306054;22;20018;-78
2022/01/19 07:42:22;;;;;;;3.42;1.90;;;;;;;;;;6280051;22;20019;-77
2022/01/19 07:45:26;;;;;;;4.30;1.65;;;;;;;;;;6303862;22;20114;-77
2022/01/19 07:48:08;;;;;;;5.50;1.90;;;;;;;;;;6308030;22;20019;-77
2022/01/19 07:50:47;;;;;;;3.75;1.70;;;;;;;;;;6307726;22;20011;-77
2022/01/19 07:53:38;;;;;;;2.87;1.17;;;;;;;;;;6291805;22;20522;-78
2022/01/19 07:56:25;;;;;;;2.15;1.10;;;;;;;;;;6308349;22;20034;-78
2022/01/19 07:59:26;;;;;;;3.05;1.38;;;;;;;;;;6306870;22;20034;-78
2022/01/19 08:01:57;;;;;;;2.88;1.38;;;;;;;;;;6303861;22;20027;-78
2022/01/19 08:04:46;;;;;;;5.10;1.80;;;;;;;;;;6303883;22;20031;-78
2022/01/19 08:07:19;;;;;;;4.53;1.20;;;;;;;;;;6280522;22;20036;-78
2022/01/19 08:09:52;;;;;;;4.80;1.10;;;;;;;;;;6281486;22;20072;-78
2022/01/19 08:12:22;;;;;;;3.22;1.40;;;;;;;;;;6281672;22;20223;-78
2022/01/19 08:14:54;;;;;;;3.60;1.50;;;;;;;;;;6281923;22;20029;-79
2022/01/19 08:17:30;;;;;;;7.85;1.90;;;;;;;;;;6280536;22;20022;-79
2022/01/19 08:22:52;;;;;;;5.35;2.03;;;;;;;;;;6302253;22;20091;-78
2022/01/19 08:25:30;;;;;;;5.15;1.52;;;;;;;;;;6276742;22;20422;-78
2022/01/19 08:27:59;;;;;;;3.05;1.48;;;;;;;;;;6249194;22;20019;-78
2022/01/19 08:30:33;;;;;;;6.68;2.15;;;;;;;;;;6295733;22;20034;-78
2022/01/19 08:33:03;;;;;;;4.70;1.57;;;;;;;;;;6243748;22;20107;-78
2022/01/19 08:35:47;;;;;;;3.97;1.23;;;;;;;;;;6247324;22;20034;-78
2022/01/19 08:38:35;;;;;;;7.07;1.83;;;;;;;;;;6272779;22;20019;-78
2022/01/19 08:41:17;;;;;;;7.38;1.90;;;;;;;;;;6272053;22;20085;-78
2022/01/19 08:43:47;;;;;;;5.43;1.92;;;;;;;;;;6245415;22;20045;-78
2022/01/19 08:46:16;;;;;;;6.43;1.70;;;;;;;;;;6217800;22;20096;-78
2022/01/19 08:49:07;;;;;;;3.70;1.55;;;;;;;;;;6241158;22;20023;-78
2022/01/19 08:51:54;;;;;;;7.88;1.88;;;;;;;;;;6220409;22;20026;-78
2022/01/19 08:54:28;;;;;;;4.90;1.52;;;;;;;;;;6220135;22;20025;-78
2022/01/19 08:57:04;;;;;;;5.13;1.98;;;;;;;;;;6220260;22;20095;-78
2022/01/19 08:59:33;;;;;;;6.70;2.87;;;;;;;;;;6220249;22;20153;-78
2022/01/19 09:02:04;;;;;;;8.23;1.88;;;;;;;;;;6242469;22;20100;-78
2022/01/19 09:04:33;;;;;;;6.93;2.03;;;;;;;;;;6220433;22;20031;-78
2022/01/19 09:07:02;;;;;;;6.15;1.60;;;;;;;;;;6220053;22;20102;-78
2022/01/19 09:09:32;;;;;;;7.75;2.20;;;;;;;;;;6245904;22;20019;-78
2022/01/19 09:12:00;;;;;;;7.90;1.40;;;;;;;;;;6218692;22;20034;-78
2022/01/19 09:14:32;;;;;;;3.58;0.95;;;;;;;;;;6246728;22;20024;-78
2022/01/19 09:17:07;;;;;;;6.65;2.08;;;;;;;;;;6257336;22;20029;-77
2022/01/19 09:19:39;;;;;;;3.88;1.65;;;;;;;;;;6220915;22;20031;-78
2022/01/19 09:22:10;;;;;;;2.60;0.80;;;;;;;;;;6244367;22;20110;-78
2022/01/19 09:27:59;;;;;;;3.42;1.65;;;;;;;;;;6271550;22;20035;-78
2022/01/19 09:30:29;;;;;;;8.15;2.20;;;;;;;;;;6243196;22;20020;-78
2022/01/19 09:33:11;;;;;;;3.35;1.50;;;;;;;;;;6243738;22;20353;-78
2022/01/19 09:35:53;;;;;;;5.13;1.65;;;;;;;;;;6245398;22;20016;-78
2022/01/19 09:38:24;;;;;;;5.40;2.13;;;;;;;;;;6244401;22;20586;-78
2022/01/19 09:40:53;;;;;;;6.18;1.63;;;;;;;;;;6245370;22;20051;-78
2022/01/19 09:43:22;;;;;;;3.58;1.50;;;;;;;;;;6220073;22;20020;-78
2022/01/19 09:45:53;;;;;;;5.65;2.00;;;;;;;;;;6269250;22;20491;-78
2022/01/19 09:48:23;;;;;;;3.40;1.52;;;;;;;;;;6219845;22;20020;-78
2022/01/19 09:50:53;;;;;;;4.73;2.23;;;;;;;;;;6219213;22;20103;-78
2022/01/19 09:53:22;;;;;;;5.05;1.85;;;;;;;;;;6245196;22;20334;-78
2022/01/19 09:55:53;;;;;;;6.07;1.85;;;;;;;;;;6244554;22;20046;-78
2022/01/19 09:58:22;;;;;;;7.50;2.20;;;;;;;;;;6220318;22;20019;-78
2022/01/19 10:00:53;;;;;;;6.00;2.15;;;;;;;;;;6216639;22;20015;-78
2022/01/19 10:03:22;;;;;;;6.23;2.27;;;;;;;;;;6244951;22;20115;-78
2022/01/19 10:05:58;;;;;;;5.78;2.28;;;;;;;;;;6218691;22;20022;-77
2022/01/19 10:08:32;;;;;;;5.60;1.90;;;;;;;;;;6243882;22;20409;-78
2022/01/19 10:11:15;;;;;;;6.07;1.73;;;;;;;;;;6244374;22;20019;-78
2022/01/19 10:17:00;;;;;;;5.23;2.43;;;;;;;;;;6241438;22;20039;-77
2022/01/19 10:19:32;;;;;;;5.00;2.75;;;;;;;;;;6244528;22;20023;-77
2022/01/19 10:22:07;;;;;;;9.38;3.30;;;;;;;;;;6219127;22;20054;-76
2022/01/19 10:24:37;;;;;;;5.47;2.72;;;;;;;;;;6243533;22;20023;-79
2022/01/19 10:27:24;;;;;;;6.25;2.78;;;;;;;;;;6219501;22;20023;-79
2022/01/19 10:29:54;;;;;;;6.97;2.53;;;;;;;;;;6218719;22;20023;-79
2022/01/19 10:32:26;;;;;;;5.50;2.28;;;;;;;;;;6242171;22;20023;-79
2022/01/19 10:34:57;;;;;;;7.95;2.67;;;;;;;;;;6243644;22;20027;-74
2022/01/19 10:37:27;;;;;;;8.85;2.50;;;;;;;;;;6271314;22;20095;-78
2022/01/19 10:40:00;;;;;;;6.03;2.78;;;;;;;;;;6218511;22;20039;-77
2022/01/19 10:42:31;;;;;;;7.40;2.63;;;;;;;;;;6220814;22;20092;-75
2022/01/19 10:45:01;;;;;;;9.38;3.00;;;;;;;;;;6271276;22;20089;-79
2022/01/19 10:47:42;;;;;;;6.90;2.70;;;;;;;;;;6245360;22;20111;-74
2022/01/19 10:50:12;;;;;;;7.13;2.53;;;;;;;;;;6248174;22;20015;-76
2022/01/19 10:52:41;;;;;;;16.30;3.67;;;;;;;;;;6274643;22;20015;-76
2022/01/19 10:55:12;;;;;;;7.07;2.97;;;;;;;;;;6273887;22;20034;-77
2022/01/19 10:57:42;;;;;;;7.05;3.38;;;;;;;;;;6302368;22;20030;-77
2022/01/19 11:00:15;;;;;;;9.60;3.40;;;;;;;;;;6271412;22;20394;-77
2022/01/19 11:02:46;;;;;;;7.32;3.63;;;;;;;;;;6304412;22;20019;-76
2022/01/19 11:05:18;;;;;;;5.95;2.63;;;;;;;;;;6306464;22;20079;-76
2022/01/19 11:07:48;;;;;;;7.80;3.07;;;;;;;;;;6309081;22;20181;-78
2022/01/19 11:10:21;;;;;;;8.52;3.45;;;;;;;;;;6335060;22;20034;-76
2022/01/19 11:12:55;;;;;;;7.82;3.05;;;;;;;;;;6306769;22;20019;-77
2022/01/19 11:15:30;;;;;;;9.63;3.88;;;;;;;;;;6333829;22;20026;-77
2022/01/19 11:18:08;;;;;;;10.32;3.00;;;;;;;;;;6280412;22;20019;-78
2022/01/19 11:20:44;;;;;;;10.40;3.73;;;;;;;;;;6280988;22;20022;-78
2022/01/19 11:23:19;;;;;;;9.30;4.47;;;;;;;;;;6280205;22;20030;-76
2022/01/19 11:25:52;;;;;;;10.55;3.78;;;;;;;;;;6280904;22;20019;-77
2022/01/19 11:28:25;;;;;;;13.48;4.28;;;;;;;;;;6279165;22;20072;-77
2022/01/19 11:30:56;;;;;;;10.00;3.80;;;;;;;;;;6305091;22;20015;-76
2022/01/19 11:33:52;;;;;;;8.70;4.50;;;;;;;;;;6306019;22;20405;-77
2022/01/19 11:36:23;;;;;;;10.18;4.05;;;;;;;;;;6305914;22;20019;-78
2022/01/19 11:38:55;;;;;;;8.15;3.28;;;;;;;;;;6307593;22;20087;-79
2022/01/19 11:41:38;;;;;;;9.57;4.47;;;;;;;;;;6281634;22;20019;-76
2022/01/19 11:44:08;;;;;;;10.68;4.32;;;;;;;;;;6281551;22;20015;-79
2022/01/19 11:46:40;;;;;;;6.67;2.97;;;;;;;;;;6277851;22;20019;-77
2022/01/19 11:49:11;;;;;;;7.50;3.60;;;;;;;;;;6282039;22;20105;-77
2022/01/19 11:51:41;;;;;;;12.43;5.13;;;;;;;;;;6280852;22;20048;-78
2022/01/19 11:54:16;;;;;;;11.48;4.40;;;;;;;;;;6282252;22;20029;-77
2022/01/19 11:57:08;;;;;;;15.23;5.45;;;;;;;;;;6280884;22;20464;-77
2022/01/19 11:59:56;;;;;;;10.77;4.13;;;;;;;;;;6307618;22;20044;-77
2022/01/19 12:02:40;;;;;;;8.20;4.68;;;;;;;;;;6277803;22;20061;-78
2022/01/19 12:05:33;;;;;;;10.85;3.65;;;;;;;;;;6307394;22;20345;-78
2022/01/19 12:08:21;;;;;;;15.52;5.13;;;;;;;;;;6307871;22;20021;-79
2022/01/19 12:10:52;;;;;;;15.77;4.15;;;;;;;;;;6281419;22;20068;-78
2022/01/19 12:13:35;;;;;;;11.83;5.57;;;;;;;;;;6280338;22;20049;-78
2022/01/19 12:16:16;;;;;;;11.32;6.07;;;;;;;;;;6279312;22;20050;-76
2022/01/19 12:18:47;;;;;;;9.57;4.05;;;;;;;;;;6304804;22;20072;-76
2022/01/19 12:21:18;;;;;;;10.93;4.68;;;;;;;;;;6304119;22;20030;-76
2022/01/19 12:23:47;;;;;;;10.20;5.05;;;;;;;;;;6332088;22;20085;-76
2022/01/19 12:26:16;;;;;;;11.00;3.53;;;;;;;;;;6304864;22;20093;-77
2022/01/19 12:28:46;;;;;;;13.43;3.97;;;;;;;;;;6306204;22;20011;-76
2022/01/19 12:31:31;;;;;;;9.02;3.78;;;;;;;;;;6304163;22;20018;-76
2022/01/19 12:34:27;;;;;;;15.35;3.95;;;;;;;;;;6282064;22;20011;-76
2022/01/19 12:36:59;;;;;;;12.50;5.03;;;;;;;;;;6238340;22;20098;-76
2022/01/19 12:39:44;;;;;;;10.40;4.40;;;;;;;;;;6281406;22;20090;-76
2022/01/19 12:42:18;;;;;;;6.80;3.88;;;;;;;;;;6307802;22;20093;-76
2022/01/19 12:44:49;;;;;;;11.73;5.53;;;;;;;;;;6336020;22;20027;-77
2022/01/19 12:47:36;;;;;;;8.75;3.90;;;;;;;;;;6303945;22;20053;-76
2022/01/19 12:50:20;;;;;;;9.85;3.83;;;;;;;;;;6280598;22;20284;-76
2022/01/19 12:52:53;;;;;;;7.63;4.00;;;;;;;;;;6305771;22;20481;-77
2022/01/19 12:55:23;;;;;;;10.15;3.85;;;;;;;;;;6306536;22;20418;-77
2022/01/19 12:57:52;;;;;;;8.57;3.83;;;;;;;;;;6280887;22;20038;-77
2022/01/19 13:00:23;;;;;;;8.15;4.13;;;;;;;;;;6301968;22;20101;-77
2022/01/19 13:02:51;;;;;;;5.72;2.78;;;;;;;;;;6305032;22;20015;-77
2022/01/19 13:05:21;;;;;;;9.83;4.47;;;;;;;;;;6332872;22;20026;-78
2022/01/19 13:07:54;;;;;;;9.25;3.83;;;;;;;;;;6333618;22;20117;-77
2022/01/19 13:10:34;;;;;;;8.02;4.07;;;;;;;;;;6332957;22;20369;-77
2022/01/19 13:13:08;;;;;;;10.75;4.50;;;;;;;;;;6306446;22;20011;-76
2022/01/19 13:15:41;;;;;;;9.45;4.15;;;;;;;;;;6277963;22;20061;-77
2022/01/19 13:18:09;;;;;;;8.23;3.63;;;;;;;;;;6334711;22;20425;-77
2022/01/19 13:20:50;;;;;;;8.30;4.47;;;;;;;;;;6333658;22;20045;-77
2022/01/19 13:23:20;;;;;;;11.10;4.78;;;;;;;;;;6306146;22;20022;-76
2022/01/19 13:25:55;;;;;;;14.18;4.22;;;;;;;;;;6306373;22;20015;-77
2022/01/19 13:28:26;;;;;;;10.77;3.70;;;;;;;;;;6333023;22;20019;-77
2022/01/19 14:03:50;;;;;;;6.38;3.85;;;;;;;;;;6321097;22;20078;-76
2022/01/19 14:09:19;;;;;;;8.30;4.22;;;;;;;;;;6331953;22;20014;-76
2022/01/19 14:11:50;;;;;;;9.95;4.25;;;;;;;;;;6332081;22;20046;-76
2022/01/19 14:14:25;;;;;;;8.93;3.33;;;;;;;;;;6305928;22;20085;-78
2022/01/19 14:16:56;;;;;;;10.80;4.57;;;;;;;;;;6302422;22;20232;-76
2022/01/19 14:19:30;;;;;;;11.10;5.37;;;;;;;;;;6335203;22;20086;-76
2022/01/19 14:25:28;;;;;;;12.50;4.25;;;;;;;;;;6300153;22;20083;-77
2022/01/19 14:27:59;;;;;;;11.98;4.93;;;;;;;;;;6300011;22;20023;-76
2022/01/19 14:30:32;;;;;;;7.95;3.95;;;;;;;;;;6268636;22;20072;-74
2022/01/19 14:33:09;;;;;;;8.53;4.00;;;;;;;;;;6272218;22;20062;-77
2022/01/19 14:35:41;;;;;;;16.88;5.40;;;;;;;;;;6300627;22;20406;-71
2022/01/19 14:38:13;;;;;;;12.32;5.07;;;;;;;;;;6300357;22;20063;-77
2022/01/19 14:40:56;;;;;;;8.77;4.15;;;;;;;;;;6301094;22;20073;-77
2022/01/19 14:43:27;;;;;;;10.90;4.85;;;;;;;;;;6299520;22;20094;-77
2022/01/19 14:46:03;;;;;;;7.83;3.90;;;;;;;;;;6297934;22;20023;-81
2022/01/19 14:48:37;;;;;;;9.50;4.10;;;;;;;;;;6298021;22;20041;-76
2022/01/19 14:51:18;;;;;;;10.70;4.65;;;;;;;;;;6275654;22;20022;-76
2022/01/19 14:53:48;;;;;;;9.43;4.10;;;;;;;;;;6273975;22;20031;-76
2022/01/19 14:56:18;;;;;;;9.20;4.45;;;;;;;;;;6301757;22;20206;-76
2022/01/19 14:58:47;;;;;;;12.37;4.77;;;;;;;;;;6272450;22;20050;-76
2022/01/19 15:01:16;;;;;;;7.78;3.50;;;;;;;;;;6299545;22;20031;-77
2022/01/19 15:03:48;;;;;;;16.75;6.00;;;;;;;;;;6271482;22;20049;-77
2022/01/19 15:06:17;;;;;;;11.68;4.13;;;;;;;;;;6297664;22;20025;-76
2022/01/19 15:08:45;;;;;;;8.48;3.67;;;;;;;;;;6299990;22;20438;-76
2022/01/19 15:11:15;;;;;;;10.80;4.43;;;;;;;;;;6301552;22;20034;-81
2022/01/19 15:13:45;;;;;;;8.75;3.55;;;;;;;;;;6302134;22;20019;-74
2022/01/19 15:16:18;;;;;;;11.55;4.40;;;;;;;;;;6298919;22;20492;-75
2022/01/19 15:18:49;;;;;;;9.82;3.95;;;;;;;;;;6298286;22;20041;-77
2022/01/19 15:21:19;;;;;;;12.52;4.63;;;;;;;;;;6300302;22;20027;-77
2022/01/19 15:23:52;;;;;;;10.27;3.73;;;;;;;;;;6306761;22;20022;-77
2022/01/19 15:26:22;;;;;;;9.40;4.47;;;;;;;;;;6345535;22;20089;-78
2022/01/19 15:28:51;;;;;;;12.18;5.38;;;;;;;;;;6334274;22;20068;-77
2022/01/19 15:31:21;;;;;;;9.13;4.18;;;;;;;;;;6248083;22;20076;-77
2022/01/19 15:33:51;;;;;;;9.75;4.82;;;;;;;;;;6331777;22;20398;-75
2022/01/19 15:36:21;;;;;;;7.83;3.57;;;;;;;;;;6305379;22;20019;-73
2022/01/19 15:38:51;;;;;;;7.85;3.58;;;;;;;;;;6278718;22;20355;-73
2022/01/19 15:41:19;;;;;;;11.15;4.13;;;;;;;;;;6305906;22;20098;-73
2022/01/19 15:43:49;;;;;;;14.48;4.25;;;;;;;;;;6333011;22;20088;-72
2022/01/19 15:46:17;;;;;;;11.23;4.20;;;;;;;;;;6304927;22;20030;-73
2022/01/19 15:49:06;;;;;;;12.00;4.33;;;;;;;;;;6332345;22;20029;-76
2022/01/19 15:51:39;;;;;;;9.57;4.05;;;;;;;;;;6332981;22;20446;-73
2022/01/19 17:02:38;;;;;;;5.88;2.60;;;;;;;;;;6348857;22;20111;-82
2022/01/19 17:09:40;;;;;;;6.30;1.93;;;;;;;;;;6189017;23;20534;-78
2022/01/19 17:17:06;;;;;;;6.28;2.65;;;;;;;;;;6206955;23;20023;-77
2022/01/19 17:20:06;;;;;;;4.20;2.17;;;;;;;;;;6216228;23;20020;-80
2022/01/19 17:22:57;;;;;;;8.63;3.33;;;;;;;;;;6212370;23;20019;-80
2022/01/19 17:25:29;;;;;;;10.20;3.30;;;;;;;;;;6261676;22;20038;-78
2022/01/19 17:27:59;;;;;;;5.25;2.65;;;;;;;;;;6226417;23;20642;-78
2022/01/19 17:30:28;;;;;;;8.90;3.60;;;;;;;;;;6211053;23;20036;-81
2022/01/19 18:06:31;;;;;;;8.65;3.78;;;;;;;;;;6065426;23;20377;-80
2022/01/19 18:29:59;;;;;;;9.20;3.75;;;;;;;;;;5038709;28;20103;-80
2022/01/19 18:32:53;;;;;;;8.50;3.13;;;;;;;;;;5052415;28;20077;-80
2022/01/19 18:35:28;;;;;;;10.43;2.87;;;;;;;;;;5071014;28;20040;-80
2022/01/19 18:37:59;;;;;;;9.45;3.28;;;;;;;;;;5061045;28;20485;-78
2022/01/19 18:40:30;;;;;;;7.80;3.63;;;;;;;;;;5029281;28;20127;-80
2022/01/19 18:43:02;;;;;;;14.30;5.28;;;;;;;;;;5040622;28;20454;-79
2022/01/19 18:45:31;;;;;;;6.32;2.63;;;;;;;;;;5045801;28;20037;-78
2022/01/19 18:48:01;;;;;;;7.83;3.60;;;;;;;;;;5060057;28;20051;-79
2022/01/19 18:50:30;;;;;;;11.75;3.63;;;;;;;;;;5066000;28;20393;-79
2022/01/19 18:53:01;;;;;;;6.95;2.92;;;;;;;;;;5077708;28;20053;-79
2022/01/19 18:55:39;;;;;;;12.45;4.72;;;;;;;;;;5089476;28;21795;-80
2022/01/19 18:58:10;;;;;;;6.63;3.13;;;;;;;;;;5101160;28;20051;-80
2022/01/19 19:00:47;;;;;;;6.87;3.43;;;;;;;;;;5099995;28;20078;-80
2022/01/19 19:03:17;;;;;;;9.30;3.55;;;;;;;;;;5091672;28;20762;-79
2022/01/19 19:05:46;;;;;;;7.00;2.65;;;;;;;;;;5108002;28;20047;-78
2022/01/19 19:08:15;;;;;;;9.73;3.63;;;;;;;;;;5090275;28;20055;-79
2022/01/19 19:11:05;;;;;;;7.32;2.97;;;;;;;;;;5106302;28;20511;-79
2022/01/19 19:13:59;;;;;;;8.43;3.00;;;;;;;;;;5114408;28;20076;-79
2022/01/19 19:16:29;;;;;;;7.18;3.17;;;;;;;;;;5102457;28;20052;-79
2022/01/19 19:19:10;;;;;;;6.53;3.85;;;;;;;;;;5092244;28;20155;-80
2022/01/19 19:21:49;;;;;;;5.95;3.13;;;;;;;;;;5103242;28;20032;-80
2022/01/19 19:24:20;;;;;;;9.57;3.58;;;;;;;;;;5104561;28;20538;-79
2022/01/19 19:26:59;;;;;;;7.70;4.33;;;;;;;;;;5101596;28;20639;-80
2022/01/19 19:29:30;;;;;;;7.32;3.97;;;;;;;;;;5098733;28;20040;-80
2022/01/19 19:32:13;;;;;;;6.93;3.97;;;;;;;;;;5095483;28;20379;-80
2022/01/19 19:34:44;;;;;;;10.00;4.28;;;;;;;;;;5091586;28;20044;-80